ZA-0099 weather

Holbank Airport
Mpumalanga, South Africa

Public forecast

Using degrees Celsius for public forecast. Weather courtesy of forecast.io.

Closest aviation weather report (METAR) to Holbank Airport

Report is more than 6 hours old.

Closest report is Ermelo Airport, 14.8 nm (27.5 km) WNW. Retrieved 2020/01/26 06:45 UTC (20 hours ago):

FAEO 260645Z 32013KT 9999 FEW015 20/15 Q1022

Closest aviation forecast (TAF) to Holbank Airport

Forecast is more than 12 hours old.

Closest forecast is Ermelo Airport, 14.8 nm (27.5 km) WNW. Retrieved 2017/06/05 04:55 UTC (3 years ago):

TAF FAEO 050300Z 0504/0515 09006KT CAVOK TX18/0513ZTN05/0504Z